createdAt,value
2019-05-19T19:48:16.222Z,15.79
2019-05-19T19:50:50.123Z,15.69
2019-05-19T19:53:24.138Z,15.68
2019-05-19T19:56:00.998Z,15.71
2019-05-19T19:58:36.984Z,15.69
2019-05-19T20:01:12.754Z,15.63
2019-05-19T20:03:49.069Z,15.70
2019-05-19T20:06:22.479Z,15.57
2019-05-19T20:08:56.188Z,15.51
2019-05-19T20:11:29.325Z,15.54
2019-05-19T20:14:05.689Z,15.49
2019-05-19T20:16:44.176Z,15.43
2019-05-19T20:19:18.341Z,15.36
2019-05-19T20:21:54.807Z,15.32
2019-05-19T20:24:29.832Z,15.28
2019-05-19T20:27:02.850Z,15.39
2019-05-19T20:29:42.308Z,15.30
2019-05-19T20:32:24.267Z,15.18
2019-05-19T20:34:59.545Z,15.30
2019-05-19T20:37:32.751Z,15.35
2019-05-19T20:40:11.186Z,15.21
2019-05-19T20:42:45.015Z,15.15
2019-05-19T20:45:18.362Z,15.15
2019-05-19T20:47:52.467Z,15.18
2019-05-19T20:50:30.957Z,15.13
2019-05-19T20:53:05.767Z,15.29
2019-05-19T20:55:39.992Z,15.17
2019-05-19T20:58:13.350Z,15.02
2019-05-19T21:00:50.578Z,14.99
2019-05-19T21:03:21.940Z,14.90
2019-05-19T21:05:57.850Z,14.85
2019-05-19T21:08:31.884Z,14.91
2019-05-19T21:11:05.301Z,14.76
2019-05-19T21:13:38.564Z,14.76
2019-05-19T21:16:12.159Z,14.73
2019-05-19T21:18:47.127Z,14.70
2019-05-19T21:21:20.275Z,14.87
2019-05-19T21:23:53.706Z,14.73
2019-05-19T21:26:26.887Z,14.49
2019-05-19T21:28:59.551Z,14.42
2019-05-19T21:31:32.906Z,14.39
2019-05-19T21:34:06.314Z,14.43
2019-05-19T21:36:40.286Z,14.29
2019-05-19T21:39:13.850Z,14.18
2019-05-19T21:41:46.772Z,14.08
2019-05-19T21:44:19.872Z,13.92
2019-05-19T21:46:53.369Z,13.96
2019-05-19T21:49:26.562Z,14.00
2019-05-19T21:51:59.328Z,13.91
2019-05-19T21:54:32.335Z,13.84
2019-05-19T21:57:06.045Z,13.96
2019-05-19T21:59:39.555Z,13.85
2019-05-19T22:02:13.041Z,13.77
2019-05-19T22:04:46.185Z,13.64
2019-05-19T22:07:29.060Z,13.58
2019-05-19T22:10:02.556Z,13.50
2019-05-19T22:12:35.743Z,13.53
2019-05-19T22:15:10.957Z,13.59
2019-05-19T22:17:44.005Z,13.68
2019-05-19T22:20:17.497Z,13.48
2019-05-19T22:22:50.553Z,13.58
2019-05-19T22:25:26.509Z,13.44
2019-05-19T22:28:00.017Z,13.22
2019-05-19T22:30:32.655Z,13.07
2019-05-19T22:33:06.408Z,12.88
2019-05-19T22:35:40.382Z,12.74
2019-05-19T22:38:13.424Z,12.64
2019-05-19T22:40:46.001Z,12.64
2019-05-19T22:43:19.759Z,12.78
2019-05-19T22:45:53.192Z,12.87
2019-05-19T22:48:26.578Z,12.85
2019-05-19T22:51:00.072Z,12.81
2019-05-19T22:53:32.804Z,12.80
2019-05-19T22:56:05.995Z,12.83
2019-05-19T22:58:41.513Z,12.64
2019-05-19T23:01:14.280Z,12.53
2019-05-19T23:03:46.967Z,12.34
2019-05-19T23:06:20.063Z,12.28
2019-05-19T23:08:53.468Z,12.23
2019-05-19T23:11:27.052Z,12.08
2019-05-19T23:14:01.811Z,12.08
2019-05-19T23:16:35.093Z,12.09
2019-05-19T23:19:08.604Z,12.04
2019-05-19T23:21:42.218Z,11.96
2019-05-19T23:24:15.577Z,11.90
2019-05-19T23:26:48.884Z,11.82
2019-05-19T23:29:21.514Z,11.83
2019-05-19T23:32:06.222Z,11.74
2019-05-19T23:34:30.078Z,11.81
2019-05-19T23:37:03.076Z,11.78
2019-05-19T23:39:36.757Z,11.69
2019-05-19T23:42:09.999Z,11.67
2019-05-19T23:44:43.450Z,11.77
2019-05-19T23:47:16.439Z,11.83
2019-05-19T23:49:49.929Z,11.97
2019-05-19T23:52:24.231Z,11.82
2019-05-19T23:54:56.929Z,11.84
2019-05-19T23:57:29.797Z,12.23
